Time;durP1;ratioP1;P1;durP2;ratioP2;P2;SDS_P1;SDS_P2;PMS_P1;PMS_P2;Temp;Humidity;BMP_temperature;BMP_pressure;BME280_temperature;BME280_humidity;BME280_pressure;Samples;Min_cycle;Max_cycle;Signal;HPM_P1;HPM_P2
2022/04/24 00:00:51;;;;;;;;;37.40;35.40;;;;;;;;5208835;28;9477;-69
2022/04/24 00:03:23;;;;;;;;;39.20;35.40;;;;;;;;5207320;28;8782;-69
2022/04/24 00:05:54;;;;;;;;;40.60;36.00;;;;;;;;5225634;28;9520;-69
2022/04/24 00:08:25;;;;;;;;;46.00;40.80;;;;;;;;5224711;28;8786;-69
2022/04/24 00:10:56;;;;;;;;;46.20;39.20;;;;;;;;5224834;28;8916;-70
2022/04/24 00:13:31;;;;;;;;;39.75;37.25;;;;;;;;5207987;28;9051;-70
2022/04/24 00:16:02;;;;;;;;;31.00;26.60;;;;;;;;5225089;28;11102;-69
2022/04/24 00:18:35;;;;;;;;;23.20;21.60;;;;;;;;5224915;28;8983;-70
2022/04/24 00:21:07;;;;;;;;;19.80;19.80;;;;;;;;5203781;28;8816;-70
2022/04/24 00:23:56;;;;;;;;;13.20;12.40;;;;;;;;5221738;28;8797;-70
2022/04/24 00:26:27;;;;;;;;;11.60;11.60;;;;;;;;5191903;28;8854;-69
2022/04/24 00:28:58;;;;;;;;;18.80;18.20;;;;;;;;5224731;28;8810;-70
2022/04/24 00:31:29;;;;;;;;;15.40;15.40;;;;;;;;5224625;28;9523;-70
2022/04/24 00:34:19;;;;;;;;;18.60;18.20;;;;;;;;5225897;28;8829;-69
2022/04/24 00:36:51;;;;;;;;;19.00;18.20;;;;;;;;5224297;28;9639;-68
2022/04/24 00:39:40;;;;;;;;;21.80;20.00;;;;;;;;5224610;28;9540;-68
2022/04/24 00:42:12;;;;;;;;;20.40;20.40;;;;;;;;5224019;28;9555;-68
2022/04/24 00:45:02;;;;;;;;;15.80;15.80;;;;;;;;5224663;28;8794;-69
2022/04/24 00:47:46;;;;;;;;;18.60;17.60;;;;;;;;5224453;28;8786;-71
2022/04/24 00:50:18;;;;;;;;;14.40;14.20;;;;;;;;5224349;28;9528;-69
2022/04/24 00:53:07;;;;;;;;;18.60;18.20;;;;;;;;5224030;28;8902;-69
2022/04/24 00:55:38;;;;;;;;;19.50;17.00;;;;;;;;5207773;28;8801;-69
2022/04/24 00:58:10;;;;;;;;;18.40;17.20;;;;;;;;5224049;28;11416;-69
2022/04/24 01:01:00;;;;;;;;;20.40;18.80;;;;;;;;5224056;28;8819;-69
2022/04/24 01:03:32;;;;;;;;;31.80;30.00;;;;;;;;5224079;28;8806;-68
2022/04/24 01:06:03;;;;;;;;;28.80;27.00;;;;;;;;5207862;28;8785;-68
2022/04/24 01:08:52;;;;;;;;;32.40;31.60;;;;;;;;5224470;28;8804;-69
2022/04/24 01:11:24;;;;;;;;;32.00;31.60;;;;;;;;5225373;28;8825;-68
2022/04/24 01:14:15;;;;;;;;;32.40;29.60;;;;;;;;5225327;28;8814;-68
2022/04/24 01:17:06;;;;;;;;;30.60;28.80;;;;;;;;5203726;28;9618;-68
2022/04/24 01:19:37;;;;;;;;;33.40;32.00;;;;;;;;5219922;28;8777;-68
2022/04/24 01:22:08;;;;;;;;;31.00;29.80;;;;;;;;5187069;28;9677;-68
2022/04/24 01:24:39;;;;;;;;;25.80;23.80;;;;;;;;5215879;28;8831;-69
2022/04/24 01:27:10;;;;;;;;;29.20;28.20;;;;;;;;5224012;28;8795;-68
2022/04/24 01:29:42;;;;;;;;;13.60;12.20;;;;;;;;5223992;28;8894;-68
2022/04/24 01:32:13;;;;;;;;;21.00;20.60;;;;;;;;5223869;28;8961;-69
2022/04/24 01:35:03;;;;;;;;;15.40;12.80;;;;;;;;5223562;28;8900;-69
2022/04/24 01:37:34;;;;;;;;;17.60;17.40;;;;;;;;5207487;28;8770;-68
2022/04/24 01:40:05;;;;;;;;;14.40;13.20;;;;;;;;5223888;28;8792;-69
2022/04/24 01:42:36;;;;;;;;;28.80;25.40;;;;;;;;5224921;28;8781;-69
2022/04/24 01:45:07;;;;;;;;;28.25;27.75;;;;;;;;5223635;28;8828;-69
2022/04/24 01:47:39;;;;;;;;;30.60;28.80;;;;;;;;5223538;28;9409;-69
2022/04/24 01:50:10;;;;;;;;;22.60;22.00;;;;;;;;5224679;28;8766;-68
2022/04/24 01:52:59;;;;;;;;;36.40;35.20;;;;;;;;5225126;28;8863;-68
2022/04/24 01:55:30;;;;;;;;;40.40;36.60;;;;;;;;5227847;28;9556;-68
2022/04/24 01:58:01;;;;;;;;;33.75;32.25;;;;;;;;5228596;28;8789;-68
2022/04/24 02:00:33;;;;;;;;;44.20;38.00;;;;;;;;5228200;28;9109;-68
2022/04/24 02:03:04;;;;;;;;;60.50;45.75;;;;;;;;5210803;28;8777;-68
2022/04/24 02:05:35;;;;;;;;;65.40;52.80;;;;;;;;5228763;28;8801;-68
2022/04/24 02:08:06;;;;;;;;;62.80;52.20;;;;;;;;5228743;28;8940;-68
2022/04/24 02:10:38;;;;;;;;;64.40;53.80;;;;;;;;5210537;28;8820;-68
2022/04/24 02:13:09;;;;;;;;;64.20;51.80;;;;;;;;5209414;28;8871;-70
2022/04/24 02:15:40;;;;;;;;;64.75;54.00;;;;;;;;5205892;28;8824;-69
2022/04/24 02:18:11;;;;;;;;;56.60;47.00;;;;;;;;5206329;28;11480;-69
2022/04/24 02:20:42;;;;;;;;;33.25;32.50;;;;;;;;5189917;28;8812;-69
2022/04/24 02:23:13;;;;;;;;;40.40;32.60;;;;;;;;5206539;28;8777;-68
2022/04/24 02:25:44;;;;;;;;;56.80;44.80;;;;;;;;5211187;28;8844;-69
2022/04/24 02:28:16;;;;;;;;;32.40;30.00;;;;;;;;5253398;28;8802;-69
2022/04/24 02:30:47;;;;;;;;;29.20;29.00;;;;;;;;5223790;28;8810;-70
2022/04/24 02:33:18;;;;;;;;;15.75;15.00;;;;;;;;5243491;28;8821;-70
2022/04/24 02:35:49;;;;;;;;;12.80;9.80;;;;;;;;5224933;28;9726;-70
2022/04/24 02:38:20;;;;;;;;;11.20;10.80;;;;;;;;5226155;28;8813;-72
2022/04/24 02:40:51;;;;;;;;;11.80;10.80;;;;;;;;5226960;28;9596;-70
2022/04/24 02:43:41;;;;;;;;;12.60;12.20;;;;;;;;5227969;28;8786;-70
2022/04/24 02:46:12;;;;;;;;;7.40;7.20;;;;;;;;5227624;28;8793;-68
2022/04/24 02:48:43;;;;;;;;;7.20;7.20;;;;;;;;5227221;28;8875;-69
2022/04/24 02:51:14;;;;;;;;;8.20;8.20;;;;;;;;5227638;28;8774;-69
2022/04/24 02:53:45;;;;;;;;;6.20;6.20;;;;;;;;5226049;28;8817;-69
2022/04/24 02:56:34;;;;;;;;;6.20;6.20;;;;;;;;5226424;28;8770;-69
2022/04/24 02:59:05;;;;;;;;;10.00;10.00;;;;;;;;5227637;28;9501;-69
2022/04/24 03:01:39;;;;;;;;;12.20;12.20;;;;;;;;5226107;28;8831;-69
2022/04/24 03:04:28;;;;;;;;;15.80;15.80;;;;;;;;5212398;28;9493;-69
2022/04/24 03:07:00;;;;;;;;;58.00;48.50;;;;;;;;5225622;28;8758;-69
2022/04/24 03:09:31;;;;;;;;;25.60;25.20;;;;;;;;5227209;28;8770;-69
2022/04/24 03:12:20;;;;;;;;;27.80;27.40;;;;;;;;5227026;28;8844;-70
2022/04/24 03:14:51;;;;;;;;;30.80;26.80;;;;;;;;5225749;28;8821;-69
2022/04/24 03:17:22;;;;;;;;;28.00;27.00;;;;;;;;5225888;28;8790;-69
2022/04/24 03:19:53;;;;;;;;;30.60;29.60;;;;;;;;5225891;28;8785;-68
2022/04/24 03:22:25;;;;;;;;;42.80;39.00;;;;;;;;5209220;28;9547;-70
2022/04/24 03:24:57;;;;;;;;;50.20;43.60;;;;;;;;5225542;28;8797;-70
2022/04/24 03:27:29;;;;;;;;;42.80;39.00;;;;;;;;5225086;28;8791;-72
2022/04/24 03:30:01;;;;;;;;;39.20;36.80;;;;;;;;5226982;28;9492;-71
2022/04/24 03:32:32;;;;;;;;;28.20;28.20;;;;;;;;5208456;28;8836;-71
2022/04/24 03:35:05;;;;;;;;;24.20;23.40;;;;;;;;5226716;28;8814;-70
2022/04/24 03:37:38;;;;;;;;;22.80;22.80;;;;;;;;5208951;28;8840;-70
2022/04/24 03:40:10;;;;;;;;;20.40;20.40;;;;;;;;5209359;28;8785;-70
2022/04/24 03:43:00;;;;;;;;;22.00;21.40;;;;;;;;5225642;28;8774;-70
2022/04/24 03:45:31;;;;;;;;;20.40;20.40;;;;;;;;5226112;28;8805;-71
2022/04/24 03:48:02;;;;;;;;;46.00;40.40;;;;;;;;5225468;28;8765;-72
2022/04/24 03:50:34;;;;;;;;;21.60;21.60;;;;;;;;5192081;28;8805;-71
2022/04/24 03:53:05;;;;;;;;;17.40;17.40;;;;;;;;5208552;28;8798;-70
2022/04/24 03:55:36;;;;;;;;;8.80;8.20;;;;;;;;5224093;28;8864;-71
2022/04/24 03:58:06;;;;;;;;;15.75;14.50;;;;;;;;5225207;28;8766;-70
2022/04/24 04:00:37;;;;;;;;;12.00;12.00;;;;;;;;5208351;28;8778;-71
2022/04/24 04:03:08;;;;;;;;;14.00;14.00;;;;;;;;5208534;28;11458;-71
2022/04/24 04:05:39;;;;;;;;;12.20;11.80;;;;;;;;5224967;28;10148;-70
2022/04/24 04:08:11;;;;;;;;;21.40;21.40;;;;;;;;5224961;28;9507;-70
2022/04/24 04:10:42;;;;;;;;;26.00;21.40;;;;;;;;5225537;28;8774;-70
2022/04/24 04:13:13;;;;;;;;;14.60;14.60;;;;;;;;5208360;28;9500;-69
2022/04/24 04:15:44;;;;;;;;;12.00;12.00;;;;;;;;5223955;28;8814;-70
2022/04/24 04:18:16;;;;;;;;;9.20;9.00;;;;;;;;5225057;28;8828;-70
2022/04/24 04:21:05;;;;;;;;;9.00;8.60;;;;;;;;5225975;28;9007;-70
2022/04/24 04:23:36;;;;;;;;;8.80;8.80;;;;;;;;5207978;28;8987;-75
2022/04/24 04:26:08;;;;;;;;;9.00;8.50;;;;;;;;5207203;28;9007;-71
2022/04/24 04:28:39;;;;;;;;;16.60;16.00;;;;;;;;5224483;28;8923;-72
2022/04/24 04:31:10;;;;;;;;;14.40;14.00;;;;;;;;5224015;28;8798;-72
2022/04/24 04:33:59;;;;;;;;;9.00;9.00;;;;;;;;5224576;28;8876;-72
2022/04/24 04:36:30;;;;;;;;;7.33;7.33;;;;;;;;5207939;28;8789;-72
2022/04/24 04:39:01;;;;;;;;;4.50;4.50;;;;;;;;5207824;28;11446;-72
2022/04/24 04:41:32;;;;;;;;;8.00;8.00;;;;;;;;5207665;28;8782;-72
2022/04/24 04:44:03;;;;;;;;;8.00;8.00;;;;;;;;5224822;28;8847;-72
2022/04/24 04:46:35;;;;;;;;;6.50;6.50;;;;;;;;5207888;28;8785;-72
2022/04/24 04:49:06;;;;;;;;;19.40;19.40;;;;;;;;5223961;28;8778;-72
2022/04/24 04:51:37;;;;;;;;;9.50;9.50;;;;;;;;5207747;28;8790;-72
2022/04/24 04:54:08;;;;;;;;;5.25;5.25;;;;;;;;5206805;28;8798;-72
2022/04/24 04:56:39;;;;;;;;;8.33;8.33;;;;;;;;5207558;28;8805;-79
2022/04/24 04:59:10;;;;;;;;;3.75;3.75;;;;;;;;5206504;28;11475;-72
2022/04/24 05:01:41;;;;;;;;;5.50;5.50;;;;;;;;5207626;28;8817;-72
2022/04/24 05:04:12;;;;;;;;;5.75;5.75;;;;;;;;5223536;28;8790;-72
2022/04/24 05:06:43;;;;;;;;;4.75;4.75;;;;;;;;5244988;28;8779;-73
2022/04/24 05:09:15;;;;;;;;;4.75;4.75;;;;;;;;5236766;28;8790;-73
2022/04/24 05:11:46;;;;;;;;;10.75;9.25;;;;;;;;5225671;28;8770;-72
2022/04/24 05:14:17;;;;;;;;;21.80;21.80;;;;;;;;5224024;28;8814;-72
2022/04/24 05:16:48;;;;;;;;;6.00;6.00;;;;;;;;5207356;28;8809;-72
2022/04/24 05:19:20;;;;;;;;;6.25;5.25;;;;;;;;5190859;28;8790;-72
2022/04/24 05:22:09;;;;;;;;;3.00;3.00;;;;;;;;5224184;28;8802;-72
2022/04/24 05:24:40;;;;;;;;;5.67;5.67;;;;;;;;5186100;28;8839;-72
2022/04/24 05:27:11;;;;;;;;;5.00;5.00;;;;;;;;5203245;28;11464;-72
2022/04/24 05:29:42;;;;;;;;;3.00;3.00;;;;;;;;5205671;28;8788;-72
2022/04/24 05:32:13;;;;;;;;;4.50;4.50;;;;;;;;5240373;28;11033;-72
2022/04/24 05:34:44;;;;;;;;;6.00;6.00;;;;;;;;5243635;28;9592;-72
2022/04/24 05:37:16;;;;;;;;;5.00;5.00;;;;;;;;5210240;28;8801;-72
2022/04/24 05:39:47;;;;;;;;;6.00;6.00;;;;;;;;5229075;28;8917;-72
2022/04/24 05:42:18;;;;;;;;;4.50;4.50;;;;;;;;5211229;28;8924;-71
2022/04/24 05:44:49;;;;;;;;;3.50;3.50;;;;;;;;5227249;28;8838;-72
2022/04/24 05:47:38;;;;;;;;;3.00;3.00;;;;;;;;5213565;28;8785;-72
2022/04/24 05:50:09;;;;;;;;;4.25;4.25;;;;;;;;5210736;28;8806;-72
2022/04/24 05:52:40;;;;;;;;;3.00;3.00;;;;;;;;5227521;28;8778;-72
2022/04/24 05:55:11;;;;;;;;;4.00;3.25;;;;;;;;5210813;28;8841;-72
2022/04/24 05:58:01;;;;;;;;;3.25;3.25;;;;;;;;5227975;28;8769;-72
2022/04/24 06:00:31;;;;;;;;;6.33;6.33;;;;;;;;5210919;28;9570;-71
2022/04/24 06:03:03;;;;;;;;;4.00;4.00;;;;;;;;5227014;28;8793;-71
2022/04/24 06:05:34;;;;;;;;;3.75;3.75;;;;;;;;5227579;28;8777;-71
2022/04/24 06:08:05;;;;;;;;;3.50;3.50;;;;;;;;5228419;28;8786;-72
2022/04/24 06:10:36;;;;;;;;;1.75;1.75;;;;;;;;5194175;28;8851;-71
2022/04/24 06:13:07;;;;;;;;;2.50;2.50;;;;;;;;5227178;28;8808;-71
2022/04/24 06:15:39;;;;;;;;;6.00;6.00;;;;;;;;5228750;28;8825;-71
2022/04/24 06:18:11;;;;;;;;;4.00;4.00;;;;;;;;5226968;28;8932;-72
2022/04/24 06:20:43;;;;;;;;;4.00;4.00;;;;;;;;5210386;28;8820;-72
2022/04/24 06:23:14;;;;;;;;;5.50;5.50;;;;;;;;5226651;28;8778;-72
2022/04/24 06:25:45;;;;;;;;;4.00;4.00;;;;;;;;5243474;28;8821;-72
2022/04/24 06:28:16;;;;;;;;;1.25;1.25;;;;;;;;5226743;28;8790;-72
2022/04/24 06:30:47;;;;;;;;;2.00;2.00;;;;;;;;5205707;28;8901;-72
2022/04/24 06:33:18;;;;;;;;;5.75;5.75;;;;;;;;5227148;28;11501;-71
2022/04/24 06:36:07;;;;;;;;;5.00;5.00;;;;;;;;5240329;28;8802;-72
2022/04/24 06:38:38;;;;;;;;;4.50;4.50;;;;;;;;5226909;28;9570;-72
2022/04/24 06:41:09;;;;;;;;;3.75;3.75;;;;;;;;5226975;28;8774;-72
2022/04/24 06:43:41;;;;;;;;;4.00;4.00;;;;;;;;5226455;28;8766;-73
2022/04/24 06:46:12;;;;;;;;;2.50;2.50;;;;;;;;5230189;28;8775;-72
2022/04/24 06:48:43;;;;;;;;;2.25;2.25;;;;;;;;5230303;28;8818;-72
2022/04/24 06:51:32;;;;;;;;;7.25;7.25;;;;;;;;5244594;28;9513;-72
2022/04/24 06:54:03;;;;;;;;;5.00;5.00;;;;;;;;5247069;28;8817;-72
2022/04/24 06:56:34;;;;;;;;;2.75;2.75;;;;;;;;5225075;28;10801;-73
2022/04/24 06:59:06;;;;;;;;;4.75;4.75;;;;;;;;5209490;28;8793;-71
2022/04/24 07:01:37;;;;;;;;;1.00;1.00;;;;;;;;5226888;28;8794;-72
2022/04/24 07:04:08;;;;;;;;;3.50;3.50;;;;;;;;5225871;28;9819;-72
2022/04/24 07:06:39;;;;;;;;;3.00;3.00;;;;;;;;5209484;28;8794;-72
2022/04/24 07:09:10;;;;;;;;;3.00;3.00;;;;;;;;5227308;28;9492;-72
2022/04/24 07:11:42;;;;;;;;;3.25;3.25;;;;;;;;5208951;28;8912;-72
2022/04/24 07:14:32;;;;;;;;;2.50;2.50;;;;;;;;5230101;28;8819;-72
2022/04/24 07:17:03;;;;;;;;;3.75;3.75;;;;;;;;5213692;28;8771;-72
2022/04/24 07:19:34;;;;;;;;;3.25;3.25;;;;;;;;5195981;28;9521;-72
2022/04/24 07:22:23;;;;;;;;;4.50;4.50;;;;;;;;5246856;28;8815;-72
2022/04/24 07:24:55;;;;;;;;;3.50;3.50;;;;;;;;5246671;28;8842;-72
2022/04/24 07:27:26;;;;;;;;;3.50;3.50;;;;;;;;5229901;28;8909;-71
2022/04/24 07:29:57;;;;;;;;;4.00;4.00;;;;;;;;5239279;28;8959;-72
2022/04/24 07:32:36;;;;;;;;;4.33;4.33;;;;;;;;5209216;28;11449;-71
2022/04/24 07:35:12;;;;;;;;;3.00;3.00;;;;;;;;5259273;28;10199;-71
2022/04/24 07:37:44;;;;;;;;;4.00;4.00;;;;;;;;5227019;28;8782;-71
2022/04/24 07:40:20;;;;;;;;;4.00;4.00;;;;;;;;5226724;28;9539;-71
2022/04/24 07:42:56;;;;;;;;;4.00;4.00;;;;;;;;5258936;28;8802;-71
2022/04/24 07:45:29;;;;;;;;;3.00;3.00;;;;;;;;5225396;28;8824;-72
2022/04/24 07:48:01;;;;;;;;;6.00;6.00;;;;;;;;5233688;28;8793;-69
2022/04/24 07:50:39;;;;;;;;;4.00;4.00;;;;;;;;5242138;28;8766;-70
2022/04/24 07:53:10;;;;;;;;;5.00;5.00;;;;;;;;5241477;28;8790;-69
2022/04/24 07:55:49;;;;;;;;;6.25;6.25;;;;;;;;5242310;28;8838;-70
2022/04/24 07:58:20;;;;;;;;;4.00;4.00;;;;;;;;5224972;28;8786;-71
2022/04/24 08:00:51;;;;;;;;;6.25;6.25;;;;;;;;5208579;28;8859;-70
2022/04/24 08:03:22;;;;;;;;;7.67;7.67;;;;;;;;5224346;28;8910;-71
2022/04/24 08:06:11;;;;;;;;;7.00;7.00;;;;;;;;5225636;28;11568;-71
2022/04/24 08:08:42;;;;;;;;;32.50;31.75;;;;;;;;5245632;28;8795;-71
2022/04/24 08:11:13;;;;;;;;;9.67;9.33;;;;;;;;5210986;28;8817;-71
2022/04/24 08:13:44;;;;;;;;;9.00;9.00;;;;;;;;5224854;28;8781;-72
2022/04/24 08:16:15;;;;;;;;;7.00;7.00;;;;;;;;5227305;28;12144;-72
2022/04/24 08:19:04;;;;;;;;;7.00;7.00;;;;;;;;5226939;28;8816;-72
2022/04/24 08:21:35;;;;;;;;;8.67;8.67;;;;;;;;5227114;28;8818;-70
2022/04/24 08:24:06;;;;;;;;;7.50;7.50;;;;;;;;5208449;28;8822;-70
2022/04/24 08:26:37;;;;;;;;;11.00;11.00;;;;;;;;5226775;28;9476;-70
2022/04/24 08:29:07;;;;;;;;;9.00;9.00;;;;;;;;5225871;28;8855;-69
2022/04/24 08:31:38;;;;;;;;;9.25;9.00;;;;;;;;5229614;28;11406;-70
2022/04/24 08:34:09;;;;;;;;;9.00;9.00;;;;;;;;5228312;28;8837;-70
2022/04/24 08:36:40;;;;;;;;;7.25;7.25;;;;;;;;5214309;28;8793;-70
2022/04/24 08:39:11;;;;;;;;;6.00;5.67;;;;;;;;5232090;28;8843;-70
2022/04/24 08:42:00;;;;;;;;;8.50;8.50;;;;;;;;5232152;28;8770;-69
2022/04/24 08:44:32;;;;;;;;;7.33;7.33;;;;;;;;5210358;28;8790;-70
2022/04/24 08:47:04;;;;;;;;;9.00;9.00;;;;;;;;5207613;28;8814;-70
2022/04/24 08:49:35;;;;;;;;;20.40;20.20;;;;;;;;5225364;28;8904;-70
2022/04/24 08:52:06;;;;;;;;;6.25;6.25;;;;;;;;5224973;28;8904;-70
2022/04/24 08:54:41;;;;;;;;;8.33;8.33;;;;;;;;5224745;28;8836;-69
2022/04/24 08:57:12;;;;;;;;;10.00;10.00;;;;;;;;5204812;28;10714;-70
2022/04/24 08:59:44;;;;;;;;;8.75;8.75;;;;;;;;5235138;28;8812;-71
2022/04/24 09:02:15;;;;;;;;;8.00;7.00;;;;;;;;5225744;28;8805;-71
2022/04/24 09:05:06;;;;;;;;;5.50;5.50;;;;;;;;5229802;28;8791;-73
2022/04/24 09:07:39;;;;;;;;;5.00;5.00;;;;;;;;5199560;28;8797;-72
2022/04/24 09:10:12;;;;;;;;;7.75;7.75;;;;;;;;5211212;28;8825;-72
2022/04/24 09:12:43;;;;;;;;;4.75;4.75;;;;;;;;5229554;28;8778;-73
2022/04/24 09:15:16;;;;;;;;;5.33;5.33;;;;;;;;5229332;28;8841;-72
2022/04/24 09:17:47;;;;;;;;;4.50;4.50;;;;;;;;5195597;28;9476;-73
2022/04/24 09:20:19;;;;;;;;;5.75;5.75;;;;;;;;5229542;28;8798;-72
2022/04/24 09:22:50;;;;;;;;;5.50;5.50;;;;;;;;5228415;28;8794;-73
2022/04/24 09:25:40;;;;;;;;;1.00;1.00;;;;;;;;5228236;28;8814;-71
2022/04/24 09:28:10;;;;;;;;;3.00;3.00;;;;;;;;5228225;28;8762;-71
2022/04/24 09:30:48;;;;;;;;;4.67;4.67;;;;;;;;5229188;28;8895;-72
2022/04/24 09:33:42;;;;;;;;;3.00;3.00;;;;;;;;5228565;28;10891;-72
2022/04/24 09:36:32;;;;;;;;;9.75;9.75;;;;;;;;5229045;28;8805;-71
2022/04/24 09:39:02;;;;;;;;;5.00;4.00;;;;;;;;5229197;28;8770;-72
2022/04/24 09:41:33;;;;;;;;;7.00;7.00;;;;;;;;5229052;28;8806;-71
2022/04/24 09:44:11;;;;;;;;;5.67;5.67;;;;;;;;5227861;28;8786;-72
2022/04/24 09:46:42;;;;;;;;;2.00;2.00;;;;;;;;5228763;28;8871;-72
2022/04/24 09:49:39;;;;;;;;;4.00;4.00;;;;;;;;5228118;28;8970;-73
2022/04/24 09:52:11;;;;;;;;;3.00;3.00;;;;;;;;5229444;28;8958;-72
2022/04/24 09:54:43;;;;;;;;;7.50;7.50;;;;;;;;5227749;28;8833;-72
2022/04/24 09:57:14;;;;;;;;;8.25;8.25;;;;;;;;5210920;28;8777;-72
2022/04/24 09:59:46;;;;;;;;;7.75;7.75;;;;;;;;5210978;28;8778;-72
2022/04/24 10:02:18;;;;;;;;;7.00;7.00;;;;;;;;5227407;28;9022;-72
2022/04/24 10:04:49;;;;;;;;;6.50;6.00;;;;;;;;5227488;28;9202;-72
2022/04/24 10:07:20;;;;;;;;;3.50;3.50;;;;;;;;5227417;28;8821;-73
2022/04/24 10:10:14;;;;;;;;;10.00;10.00;;;;;;;;5229149;28;8786;-71
2022/04/24 10:12:55;;;;;;;;;3.75;3.75;;;;;;;;5228957;28;8786;-71
2022/04/24 10:15:27;;;;;;;;;5.75;5.75;;;;;;;;5228037;28;9532;-70
2022/04/24 10:17:58;;;;;;;;;8.25;8.25;;;;;;;;5227510;28;8786;-70
2022/04/24 10:20:36;;;;;;;;;5.50;5.50;;;;;;;;5226901;28;8812;-71
2022/04/24 10:23:09;;;;;;;;;6.75;6.75;;;;;;;;5228415;28;8817;-72
2022/04/24 10:25:40;;;;;;;;;6.25;6.25;;;;;;;;5227101;28;8837;-72
2022/04/24 10:28:18;;;;;;;;;4.25;4.25;;;;;;;;5194126;28;8774;-72
2022/04/24 10:30:59;;;;;;;;;3.00;3.00;;;;;;;;5210668;28;8807;-71
2022/04/24 10:33:32;;;;;;;;;7.00;7.00;;;;;;;;5228252;28;8770;-72
2022/04/24 10:36:22;;;;;;;;;6.00;6.00;;;;;;;;5227305;28;8882;-72
2022/04/24 10:38:57;;;;;;;;;6.25;6.25;;;;;;;;5228177;28;9492;-72
2022/04/24 10:41:31;;;;;;;;;7.00;7.00;;;;;;;;5226995;28;8810;-73
2022/04/24 10:44:09;;;;;;;;;5.25;5.25;;;;;;;;5226805;28;8870;-72
2022/04/24 10:46:59;;;;;;;;;4.75;4.75;;;;;;;;5228103;28;8782;-72
2022/04/24 10:49:35;;;;;;;;;8.75;8.75;;;;;;;;5227170;28;8817;-72
2022/04/24 10:52:06;;;;;;;;;8.25;8.25;;;;;;;;5227610;28;9501;-72
2022/04/24 10:54:38;;;;;;;;;7.25;7.25;;;;;;;;5193565;28;8868;-72
2022/04/24 10:57:16;;;;;;;;;7.50;7.50;;;;;;;;5227745;28;8809;-72
2022/04/24 10:59:48;;;;;;;;;4.00;4.00;;;;;;;;5227623;28;8867;-72
2022/04/24 11:02:21;;;;;;;;;5.00;4.50;;;;;;;;5226503;28;8821;-72
2022/04/24 11:05:06;;;;;;;;;8.25;8.25;;;;;;;;5193180;28;8798;-72
2022/04/24 11:07:38;;;;;;;;;6.50;6.50;;;;;;;;5209853;28;8794;-72
2022/04/24 11:10:10;;;;;;;;;7.75;7.75;;;;;;;;5226407;28;8916;-72
2022/04/24 11:12:59;;;;;;;;;5.25;5.00;;;;;;;;5226333;28;8810;-73
2022/04/24 11:15:30;;;;;;;;;6.33;6.00;;;;;;;;5227376;28;8814;-73
2022/04/24 11:18:01;;;;;;;;;9.00;9.00;;;;;;;;5226915;28;8785;-72
2022/04/24 11:20:33;;;;;;;;;9.00;9.00;;;;;;;;5209577;28;9716;-73
2022/04/24 11:23:05;;;;;;;;;7.50;7.50;;;;;;;;5209701;28;8863;-72
2022/04/24 11:25:39;;;;;;;;;4.00;4.00;;;;;;;;5226004;28;8856;-72
2022/04/24 11:28:10;;;;;;;;;7.00;7.00;;;;;;;;5225811;28;8842;-73
2022/04/24 11:30:41;;;;;;;;;8.25;8.25;;;;;;;;5225873;28;8785;-73
2022/04/24 11:33:12;;;;;;;;;11.67;11.67;;;;;;;;5227094;28;8816;-73
2022/04/24 11:35:43;;;;;;;;;15.50;15.00;;;;;;;;5226657;28;10894;-74
2022/04/24 11:38:15;;;;;;;;;12.67;12.67;;;;;;;;5226672;28;8824;-72
2022/04/24 11:41:04;;;;;;;;;8.00;7.50;;;;;;;;5226976;28;9114;-73
2022/04/24 11:43:39;;;;;;;;;6.00;6.00;;;;;;;;5209012;28;8812;-73
2022/04/24 11:51:55;;;;;;;;;8.00;8.00;;;;;;;;5208745;28;8778;-72
2022/04/24 11:54:28;;;;;;;;;6.33;6.33;;;;;;;;5208386;28;9609;-73
2022/04/24 11:57:00;;;;;;;;;7.00;7.00;;;;;;;;5226270;28;12184;-72
2022/04/24 11:59:34;;;;;;;;;9.00;9.00;;;;;;;;5208357;28;8872;-73
2022/04/24 12:02:09;;;;;;;;;10.25;10.25;;;;;;;;5225063;28;8785;-73
2022/04/24 12:04:40;;;;;;;;;14.50;14.00;;;;;;;;5208430;28;8948;-73
2022/04/24 12:07:13;;;;;;;;;13.75;13.75;;;;;;;;5225820;28;8823;-73
2022/04/24 12:09:45;;;;;;;;;7.00;7.00;;;;;;;;5208425;28;8778;-73
2022/04/24 12:12:47;;;;;;;;;7.75;7.75;;;;;;;;5226083;28;11247;-72
2022/04/24 12:15:20;;;;;;;;;8.50;8.50;;;;;;;;5225867;28;8825;-73
2022/04/24 12:17:56;;;;;;;;;8.25;8.25;;;;;;;;5224758;28;8908;-72
2022/04/24 12:20:34;;;;;;;;;8.75;8.75;;;;;;;;5225240;28;8797;-73
2022/04/24 12:23:12;;;;;;;;;4.50;4.50;;;;;;;;5191887;28;8794;-72
2022/04/24 12:25:48;;;;;;;;;5.75;5.75;;;;;;;;5225875;28;8810;-73
2022/04/24 12:28:46;;;;;;;;;6.00;6.00;;;;;;;;5224825;28;8789;-73
2022/04/24 12:31:22;;;;;;;;;7.50;7.50;;;;;;;;5187825;28;8781;-73
2022/04/24 12:33:54;;;;;;;;;8.50;8.50;;;;;;;;5225893;28;8871;-72
2022/04/24 12:36:25;;;;;;;;;8.00;8.00;;;;;;;;5225516;28;8642;-71
2022/04/24 12:38:55;;;;;;;;;11.67;11.00;;;;;;;;5225520;28;8782;-72
2022/04/24 12:41:45;;;;;;;;;8.75;8.75;;;;;;;;5224740;28;8785;-71
2022/04/24 12:44:16;;;;;;;;;10.50;10.00;;;;;;;;5225804;28;8885;-72
2022/04/24 12:46:47;;;;;;;;;10.00;9.33;;;;;;;;5225708;28;8778;-72
2022/04/24 12:49:36;;;;;;;;;11.25;11.25;;;;;;;;5225561;28;9408;-71
2022/04/24 12:52:08;;;;;;;;;8.75;8.75;;;;;;;;5207959;28;8794;-71
2022/04/24 12:54:39;;;;;;;;;6.50;6.25;;;;;;;;5224547;28;8825;-72
2022/04/24 12:57:10;;;;;;;;;10.67;10.67;;;;;;;;5225555;28;8810;-72
2022/04/24 12:59:59;;;;;;;;;13.50;13.50;;;;;;;;5224812;28;11438;-72
2022/04/24 13:02:30;;;;;;;;;14.75;14.75;;;;;;;;5208078;28;8802;-72
2022/04/24 13:05:19;;;;;;;;;9.50;9.50;;;;;;;;5225693;28;9191;-73
2022/04/24 13:07:51;;;;;;;;;12.67;11.67;;;;;;;;5191378;28;8875;-72
2022/04/24 13:10:24;;;;;;;;;7.75;7.75;;;;;;;;5224227;28;8797;-72
2022/04/24 13:13:01;;;;;;;;;5.25;5.25;;;;;;;;5205738;28;9593;-73
2022/04/24 13:15:33;;;;;;;;;4.50;4.50;;;;;;;;5225730;28;8824;-73
2022/04/24 13:18:08;;;;;;;;;3.50;3.50;;;;;;;;5207678;28;8794;-72
2022/04/24 13:20:41;;;;;;;;;5.75;5.75;;;;;;;;5191077;28;8781;-73
2022/04/24 13:23:12;;;;;;;;;7.00;7.00;;;;;;;;5207901;28;8845;-72
2022/04/24 13:25:44;;;;;;;;;7.00;7.00;;;;;;;;5191038;28;8806;-72
2022/04/24 13:28:16;;;;;;;;;4.25;4.25;;;;;;;;5207390;28;8778;-72
2022/04/24 13:30:50;;;;;;;;;7.50;7.50;;;;;;;;5215021;28;8785;-70
2022/04/24 13:33:20;;;;;;;;;6.75;6.75;;;;;;;;5240324;28;8927;-69
2022/04/24 13:35:54;;;;;;;;;7.00;7.00;;;;;;;;5246053;28;8822;-70
2022/04/24 13:38:25;;;;;;;;;6.50;6.50;;;;;;;;5244643;28;8799;-70
2022/04/24 13:41:01;;;;;;;;;10.00;10.00;;;;;;;;5244546;28;8787;-70
2022/04/24 13:43:50;;;;;;;;;9.75;9.75;;;;;;;;5245023;28;8846;-70
2022/04/24 13:46:21;;;;;;;;;9.33;9.33;;;;;;;;5233455;28;9559;-70
2022/04/24 13:48:52;;;;;;;;;7.33;7.33;;;;;;;;5225092;28;11478;-70
2022/04/24 13:51:22;;;;;;;;;12.33;12.33;;;;;;;;5228125;28;8792;-71
2022/04/24 13:53:54;;;;;;;;;20.00;19.75;;;;;;;;5228033;28;8816;-70
2022/04/24 13:56:25;;;;;;;;;7.25;7.25;;;;;;;;5228853;28;8951;-70
2022/04/24 13:58:55;;;;;;;;;11.00;11.00;;;;;;;;5227010;28;9006;-69
2022/04/24 14:01:27;;;;;;;;;11.00;11.00;;;;;;;;5228967;28;8789;-70
2022/04/24 14:03:58;;;;;;;;;7.25;7.25;;;;;;;;5228694;28;8800;-69
2022/04/24 14:06:29;;;;;;;;;24.80;23.80;;;;;;;;5228196;28;8805;-69
2022/04/24 14:09:01;;;;;;;;;28.60;28.60;;;;;;;;5227245;28;8810;-69
2022/04/24 14:11:31;;;;;;;;;34.20;32.60;;;;;;;;5227499;28;8801;-69
2022/04/24 14:14:02;;;;;;;;;40.75;37.50;;;;;;;;5227194;28;8805;-70
2022/04/24 14:16:36;;;;;;;;;29.80;29.20;;;;;;;;5227683;28;8782;-70
2022/04/24 14:19:10;;;;;;;;;49.40;40.60;;;;;;;;5228494;28;8782;-70
2022/04/24 14:21:41;;;;;;;;;63.60;52.20;;;;;;;;5228220;28;8798;-69
2022/04/24 14:24:12;;;;;;;;;38.50;35.00;;;;;;;;5209980;28;9536;-69
2022/04/24 14:27:01;;;;;;;;;19.80;19.00;;;;;;;;5228201;28;8793;-69
2022/04/24 14:29:32;;;;;;;;;32.75;27.50;;;;;;;;5226924;28;8785;-69
2022/04/24 14:32:05;;;;;;;;;11.60;11.60;;;;;;;;5211210;28;8806;-70
2022/04/24 14:34:36;;;;;;;;;12.60;12.60;;;;;;;;5193725;28;8928;-70
2022/04/24 14:37:07;;;;;;;;;17.25;17.25;;;;;;;;5227795;28;8932;-69
2022/04/24 14:39:38;;;;;;;;;6.00;5.50;;;;;;;;5228124;28;8785;-69
2022/04/24 14:42:09;;;;;;;;;11.80;11.80;;;;;;;;5227617;28;8797;-69
2022/04/24 14:44:42;;;;;;;;;7.25;7.25;;;;;;;;5227568;28;8825;-70
2022/04/24 14:55:59;;;;;;;;;13.00;13.00;;;;;;;;5227659;28;8834;-70
2022/04/24 14:58:31;;;;;;;;;15.50;15.50;;;;;;;;5227019;28;8810;-69
2022/04/24 15:01:02;;;;;;;;;17.00;16.60;;;;;;;;5226511;28;9562;-70
2022/04/24 15:03:33;;;;;;;;;8.00;8.00;;;;;;;;5209188;28;8781;-70
2022/04/24 15:06:04;;;;;;;;;12.25;12.25;;;;;;;;5206902;28;8827;-70
2022/04/24 15:08:35;;;;;;;;;16.25;16.00;;;;;;;;5206665;28;8820;-70
2022/04/24 15:11:06;;;;;;;;;8.80;8.40;;;;;;;;5225254;28;9550;-70
2022/04/24 15:13:37;;;;;;;;;35.25;29.25;;;;;;;;5227387;28;8782;-70
2022/04/24 15:16:08;;;;;;;;;21.00;19.50;;;;;;;;5226678;28;8844;-70
2022/04/24 15:18:39;;;;;;;;;22.20;22.20;;;;;;;;5227194;28;11004;-71
2022/04/24 15:21:10;;;;;;;;;24.50;24.50;;;;;;;;5227402;28;8809;-70
2022/04/24 15:23:53;;;;;;;;;22.80;22.80;;;;;;;;5208566;28;8817;-71
2022/04/24 15:26:26;;;;;;;;;28.60;28.00;;;;;;;;5222793;28;8813;-72
2022/04/24 15:28:57;;;;;;;;;19.80;19.80;;;;;;;;5223621;28;9556;-71
2022/04/24 15:31:28;;;;;;;;;25.80;25.80;;;;;;;;5224093;28;8794;-70
2022/04/24 15:34:00;;;;;;;;;39.25;35.50;;;;;;;;5225273;28;8813;-70
2022/04/24 15:36:31;;;;;;;;;41.60;37.60;;;;;;;;5190954;28;11547;-71
2022/04/24 15:39:02;;;;;;;;;74.75;62.00;;;;;;;;5207246;28;8801;-72